CheckWX is a tool to help pilots better visualize weather data.  It is not intended as a substitute for an official pre-flight weather briefing.

02:20:59 UTC

KAKQ METAR
Wakefield Municipal Airport
Wakefield, Virginia, USA
Current

27 mins ago

KAKQ 180154Z AUTO 00000KT 2 1/2SM -RA BR BKN005 OVC010 06/04 A2999 RMK AO2 SLP156 P0010 T00560044 $
Observed
Feb-18 @ 01:54 UTC
Visibility
2 1/2 SM
Flight Rules
IFR
Conditions
Light Rain, Mist
Cloud Levels
  • Broken at 500' AGL
  • Overcast at 1,000' AGL
Temperature
C / 43°F
Dewpoint
C / 39°F
Humidity
87%
Altimeter
29.99" Hg
Pressure
1015.6 hPa
Current Rain
0.1"
Previous

42 mins ago

KAKQ 180139Z AUTO 00000KT 3SM -RA BR BKN007 OVC012 05/04 A2998 RMK AO2 P0009 T00500044 $
Observed
Feb-18 @ 01:39 UTC
Visibility
3 SM
Flight Rules
IFR
Conditions
Light Rain, Mist
Cloud Levels
  • Broken at 700' AGL
  • Overcast at 1,200' AGL
Temperature
C / 41°F
Dewpoint
C / 39°F
Humidity
93%
Altimeter
29.98" Hg
Pressure
1015.22 hPa
Current Rain
0.09"
Previous

57 mins ago

KAKQ 180124Z AUTO 00000KT 5SM -RA BR SCT005 BKN008 OVC013 06/04 A2998 RMK AO2 P0009 T00560044 $
Observed
Feb-18 @ 01:24 UTC
Visibility
5 SM
Flight Rules
IFR
Conditions
Light Rain, Mist
Cloud Levels
  • Scattered at 500' AGL
  • Broken at 800' AGL
  • Overcast at 1,300' AGL
Temperature
C / 43°F
Dewpoint
C / 39°F
Humidity
87%
Altimeter
29.98" Hg
Pressure
1015.22 hPa
Current Rain
0.09"